Time;durP1;ratioP1;P1;durP2;ratioP2;P2;SDS_P1;SDS_P2;PMS_P1;PMS_P2;Temp;Humidity;BMP_temperature;BMP_pressure;BME280_temperature;BME280_humidity;BME280_pressure;Samples;Min_cycle;Max_cycle;Signal;HPM_P1;HPM_P2
2024/02/15 00:02:25;;;;;;;9.18;6.03;;;9.80;99.90;;;;;;5011571;28;20440;-49
2024/02/15 00:04:52;;;;;;;10.77;6.55;;;9.80;99.90;;;;;;5012581;28;20121;-50
2024/02/15 00:07:22;;;;;;;11.95;5.68;;;9.80;99.90;;;;;;5016990;28;20046;-45
2024/02/15 00:09:49;;;;;;;9.68;6.57;;;9.70;99.90;;;;;;5014983;28;20046;-48
2024/02/15 00:12:16;;;;;;;9.20;6.25;;;9.80;99.90;;;;;;5010840;28;20123;-45
2024/02/15 00:14:45;;;;;;;9.02;6.30;;;9.80;99.90;;;;;;5013296;28;20042;-47
2024/02/15 00:17:12;;;;;;;9.25;5.53;;;9.80;99.90;;;;;;5009332;28;20091;-43
2024/02/15 00:19:41;;;;;;;9.32;5.22;;;9.80;99.90;;;;;;5012683;28;20050;-42
2024/02/15 00:22:09;;;;;;;7.82;5.43;;;9.80;99.90;;;;;;5012850;28;20061;-51
2024/02/15 00:24:38;;;;;;;8.77;5.70;;;9.70;99.90;;;;;;5009780;28;20729;-46
2024/02/15 00:27:05;;;;;;;9.68;5.78;;;9.80;99.90;;;;;;5008628;28;20050;-48
2024/02/15 00:29:34;;;;;;;12.32;5.43;;;9.80;99.90;;;;;;5010143;28;20060;-47
2024/02/15 00:32:03;;;;;;;8.52;5.97;;;9.80;99.90;;;;;;5014744;28;20100;-48
2024/02/15 00:34:31;;;;;;;9.10;5.30;;;9.80;99.90;;;;;;5005320;28;20045;-49
2024/02/15 00:36:58;;;;;;;8.65;5.10;;;9.80;99.90;;;;;;5010755;28;20069;-50
2024/02/15 00:39:25;;;;;;;7.38;4.80;;;9.80;99.90;;;;;;5015259;28;20125;-44
2024/02/15 00:41:52;;;;;;;9.63;5.15;;;9.80;99.90;;;;;;5012278;28;20050;-42
2024/02/15 00:44:20;;;;;;;9.25;4.80;;;9.80;99.90;;;;;;5009473;28;20124;-47
2024/02/15 00:46:47;;;;;;;8.85;5.22;;;9.80;99.90;;;;;;5009919;28;20038;-49
2024/02/15 00:49:15;;;;;;;8.98;5.07;;;9.80;99.90;;;;;;5009018;28;20535;-46
2024/02/15 00:51:42;;;;;;;9.27;5.10;;;9.80;99.90;;;;;;5009503;28;20069;-46
2024/02/15 00:54:09;;;;;;;9.00;5.45;;;9.80;99.90;;;;;;5009513;28;20473;-44
2024/02/15 00:56:36;;;;;;;12.15;5.38;;;9.80;99.90;;;;;;5008701;28;20092;-46
2024/02/15 00:59:05;;;;;;;7.75;4.65;;;9.80;99.90;;;;;;5008959;28;20471;-51
2024/02/15 01:01:32;;;;;;;9.05;4.63;;;9.80;99.90;;;;;;5010414;28;20038;-47
2024/02/15 01:03:59;;;;;;;7.25;4.78;;;9.80;99.90;;;;;;5008504;28;20533;-45
2024/02/15 01:06:26;;;;;;;8.07;4.28;;;9.80;99.90;;;;;;5010400;28;20065;-44
2024/02/15 01:08:53;;;;;;;6.63;4.88;;;9.80;99.90;;;;;;5013432;28;20092;-45
2024/02/15 01:11:20;;;;;;;8.68;5.25;;;9.80;99.90;;;;;;5009863;28;20060;-45
2024/02/15 01:13:47;;;;;;;7.60;4.75;;;9.90;99.90;;;;;;5009980;28;20463;-46
2024/02/15 01:16:15;;;;;;;8.48;4.70;;;9.80;99.90;;;;;;5007574;28;20104;-48
2024/02/15 01:18:42;;;;;;;7.28;5.03;;;9.90;99.90;;;;;;5010618;28;20044;-46
2024/02/15 01:21:11;;;;;;;8.10;4.60;;;9.90;99.90;;;;;;5009165;28;20060;-43
2024/02/15 01:23:38;;;;;;;6.95;4.20;;;9.90;99.90;;;;;;5010293;28;20474;-45
2024/02/15 01:26:05;;;;;;;7.40;4.85;;;9.90;99.90;;;;;;5009325;28;20042;-46
2024/02/15 01:28:33;;;;;;;7.05;4.10;;;9.90;99.90;;;;;;5009373;28;20038;-52
2024/02/15 01:31:00;;;;;;;7.43;4.50;;;9.90;99.90;;;;;;5009329;28;20131;-46
2024/02/15 01:33:27;;;;;;;6.80;4.13;;;9.80;99.90;;;;;;5008969;28;20054;-49
2024/02/15 01:35:54;;;;;;;7.05;4.72;;;9.90;99.90;;;;;;5010000;28;20426;-45
2024/02/15 01:38:22;;;;;;;6.35;4.28;;;9.80;99.90;;;;;;5009114;28;20074;-46
2024/02/15 01:40:49;;;;;;;6.60;4.25;;;9.80;99.90;;;;;;5008011;28;20046;-52
2024/02/15 01:43:16;;;;;;;7.38;4.70;;;9.90;99.90;;;;;;5007692;28;20125;-50
2024/02/15 01:45:43;;;;;;;7.28;4.13;;;9.80;99.90;;;;;;5009181;28;20048;-44
2024/02/15 01:48:10;;;;;;;9.18;4.78;;;9.80;99.90;;;;;;5008682;28;20096;-50
2024/02/15 01:50:38;;;;;;;6.68;4.85;;;9.80;99.90;;;;;;5008891;28;20068;-48
2024/02/15 01:53:10;;;;;;;5.75;4.43;;;9.80;99.90;;;;;;5007417;28;20071;-51
2024/02/15 01:55:37;;;;;;;8.48;5.13;;;9.80;99.90;;;;;;5007843;28;20070;-46
2024/02/15 01:58:05;;;;;;;9.50;4.80;;;9.70;99.90;;;;;;5004172;28;20046;-46
2024/02/15 02:00:32;;;;;;;9.50;4.68;;;9.70;99.90;;;;;;5010397;28;20823;-52
2024/02/15 02:03:02;;;;;;;7.97;5.03;;;9.80;99.90;;;;;;5008705;28;20123;-50
2024/02/15 02:05:31;;;;;;;10.35;4.75;;;9.70;99.90;;;;;;5008224;28;20205;-49
2024/02/15 02:08:04;;;;;;;8.48;5.03;;;9.80;99.90;;;;;;5012436;28;20096;-45
2024/02/15 02:10:32;;;;;;;6.90;4.55;;;9.80;99.90;;;;;;5014357;28;20049;-47
2024/02/15 02:13:03;;;;;;;8.43;4.80;;;9.80;99.90;;;;;;5008241;28;20167;-49
2024/02/15 02:15:34;;;;;;;8.45;5.00;;;9.80;99.90;;;;;;5009364;28;20103;-49
2024/02/15 02:18:01;;;;;;;9.13;5.55;;;9.80;99.90;;;;;;5011394;28;20117;-48
2024/02/15 02:20:29;;;;;;;8.98;5.50;;;9.80;99.90;;;;;;5009779;28;20054;-48
2024/02/15 02:23:15;;;;;;;11.25;5.63;;;9.80;99.90;;;;;;5011217;28;20065;-49
2024/02/15 02:25:44;;;;;;;13.43;6.30;;;9.80;99.90;;;;;;5009077;28;20068;-47
2024/02/15 02:28:11;;;;;;;11.68;6.50;;;9.80;99.90;;;;;;5011305;28;20073;-47
2024/02/15 02:30:41;;;;;;;11.23;6.57;;;9.70;99.90;;;;;;5012092;28;20038;-49
2024/02/15 02:33:18;;;;;;;11.05;6.95;;;9.70;99.90;;;;;;5009978;28;20045;-48
2024/02/15 02:35:47;;;;;;;10.43;6.38;;;9.70;99.90;;;;;;5010864;28;20096;-49
2024/02/15 02:38:15;;;;;;;10.32;6.55;;;9.70;99.90;;;;;;5009823;28;20118;-46
2024/02/15 02:40:42;;;;;;;10.88;6.72;;;9.70;99.90;;;;;;5012374;28;20501;-45
2024/02/15 02:43:09;;;;;;;10.60;6.28;;;9.70;99.90;;;;;;5011284;28;20049;-45
2024/02/15 02:45:37;;;;;;;9.70;6.40;;;9.60;99.90;;;;;;5012409;28;20042;-51
2024/02/15 02:48:04;;;;;;;9.38;6.00;;;9.60;99.90;;;;;;5010543;28;20049;-44
2024/02/15 02:50:32;;;;;;;10.07;6.22;;;9.60;99.90;;;;;;5010401;28;20073;-50
2024/02/15 02:52:59;;;;;;;8.70;6.68;;;9.60;99.90;;;;;;5007656;28;20042;-42
2024/02/15 02:55:30;;;;;;;9.82;6.05;;;9.60;99.90;;;;;;5008192;28;20071;-44
2024/02/15 02:57:57;;;;;;;11.80;6.70;;;9.60;99.90;;;;;;5008518;28;20057;-48
2024/02/15 03:00:24;;;;;;;10.82;5.93;;;9.60;99.90;;;;;;5009980;28;20503;-47
2024/02/15 03:02:51;;;;;;;20.58;6.80;;;9.60;99.90;;;;;;5011801;28;20073;-51
2024/02/15 03:05:20;;;;;;;10.57;6.07;;;9.60;99.90;;;;;;5012511;28;20144;-44
2024/02/15 03:07:48;;;;;;;10.23;6.10;;;9.60;99.90;;;;;;5010869;28;20073;-46
2024/02/15 03:10:15;;;;;;;9.80;6.15;;;9.60;99.90;;;;;;5012548;28;20042;-53
2024/02/15 03:12:46;;;;;;;8.93;5.72;;;9.60;99.90;;;;;;5008117;28;20046;-46
2024/02/15 03:15:16;;;;;;;11.68;6.30;;;9.60;99.90;;;;;;5004023;28;20054;-45
2024/02/15 03:17:47;;;;;;;9.68;5.93;;;9.60;99.90;;;;;;5007733;28;20050;-52
2024/02/15 03:20:21;;;;;;;10.80;6.40;;;9.60;99.90;;;;;;5011003;28;20064;-49
2024/02/15 03:22:57;;;;;;;9.05;5.80;;;9.60;99.90;;;;;;5002656;28;20065;-44
2024/02/15 03:25:25;;;;;;;8.40;5.72;;;9.60;99.90;;;;;;5005833;28;20084;-45
2024/02/15 03:27:55;;;;;;;11.00;5.75;;;9.60;99.90;;;;;;5008875;28;20085;-46
2024/02/15 03:30:24;;;;;;;10.00;5.35;;;9.60;99.90;;;;;;5006769;28;20050;-51
2024/02/15 03:32:52;;;;;;;9.50;6.20;;;9.50;99.90;;;;;;5004796;28;20124;-47
2024/02/15 03:35:22;;;;;;;8.90;5.53;;;9.50;99.90;;;;;;5006227;28;20050;-46
2024/02/15 03:37:53;;;;;;;8.77;5.68;;;9.50;99.90;;;;;;5009526;28;20080;-44
2024/02/15 03:40:22;;;;;;;7.65;5.10;;;9.50;99.90;;;;;;5006249;28;20046;-46
2024/02/15 03:42:52;;;;;;;9.05;6.15;;;9.50;99.90;;;;;;5007238;28;20097;-49
2024/02/15 03:45:19;;;;;;;9.18;5.38;;;9.50;99.90;;;;;;5002488;28;20108;-49
2024/02/15 03:47:46;;;;;;;8.23;5.40;;;9.50;99.90;;;;;;5008332;28;20335;-46
2024/02/15 03:50:14;;;;;;;7.13;4.88;;;9.50;99.90;;;;;;5008505;28;20034;-43
2024/02/15 03:52:43;;;;;;;7.38;5.15;;;9.50;99.90;;;;;;5010649;28;20870;-47
2024/02/15 03:55:10;;;;;;;8.93;5.25;;;9.50;99.90;;;;;;5005735;28;20152;-49
2024/02/15 03:57:41;;;;;;;8.55;5.10;;;9.50;99.90;;;;;;5003066;28;20060;-42
2024/02/15 04:00:10;;;;;;;9.88;5.65;;;9.50;99.90;;;;;;5003150;28;20061;-46
2024/02/15 04:02:40;;;;;;;8.18;5.03;;;9.50;99.90;;;;;;5006237;28;20042;-47
2024/02/15 04:05:10;;;;;;;7.10;4.97;;;9.40;99.90;;;;;;5008512;28;20073;-44
2024/02/15 04:07:37;;;;;;;10.75;5.25;;;9.40;99.90;;;;;;5009823;28;20091;-49
2024/02/15 04:10:06;;;;;;;8.70;5.30;;;9.40;99.90;;;;;;5010223;28;20042;-44
2024/02/15 04:12:47;;;;;;;7.60;5.63;;;9.30;99.90;;;;;;5008643;28;20136;-48
2024/02/15 04:15:16;;;;;;;9.18;5.72;;;9.30;99.90;;;;;;5013601;28;20201;-43
2024/02/15 04:17:45;;;;;;;10.55;6.15;;;9.20;99.90;;;;;;5009800;28;20510;-49
2024/02/15 04:20:15;;;;;;;9.35;5.68;;;9.10;99.90;;;;;;5009091;28;20419;-47
2024/02/15 04:22:43;;;;;;;8.70;5.32;;;9.10;99.90;;;;;;5009009;28;20045;-47
2024/02/15 04:25:10;;;;;;;5.93;4.50;;;9.00;99.90;;;;;;5009113;28;20527;-44
2024/02/15 04:27:38;;;;;;;8.65;5.28;;;8.90;99.90;;;;;;5007438;28;20076;-44
2024/02/15 04:30:09;;;;;;;7.63;5.30;;;8.80;99.90;;;;;;5008367;28;20049;-47
2024/02/15 04:32:36;;;;;;;7.70;5.03;;;8.70;99.90;;;;;;5007817;28;20045;-48
2024/02/15 04:35:05;;;;;;;9.13;5.45;;;8.70;99.90;;;;;;5008348;28;20358;-51
2024/02/15 04:37:34;;;;;;;7.68;5.40;;;8.60;99.90;;;;;;5005871;28;20072;-47
2024/02/15 04:40:08;;;;;;;11.02;5.57;;;8.60;99.90;;;;;;5007724;28;20041;-47
2024/02/15 04:42:39;;;;;;;9.27;5.45;;;8.50;99.90;;;;;;5004662;28;20486;-50
2024/02/15 04:45:09;;;;;;;8.30;5.40;;;8.50;99.90;;;;;;5002310;28;20049;-50
2024/02/15 04:47:52;;;;;;;7.78;5.43;;;8.50;99.90;;;;;;5007971;28;20391;-47
2024/02/15 04:50:20;;;;;;;6.97;5.13;;;8.60;99.90;;;;;;5008310;28;20052;-50
2024/02/15 04:52:49;;;;;;;9.70;5.68;;;8.60;99.90;;;;;;5009482;28;20048;-46
2024/02/15 04:55:17;;;;;;;8.55;5.43;;;8.70;99.90;;;;;;5006632;28;20074;-53
2024/02/15 04:57:47;;;;;;;8.77;5.50;;;8.70;99.90;;;;;;5007368;28;20048;-54
2024/02/15 05:00:15;;;;;;;9.77;5.43;;;8.70;99.90;;;;;;5007172;28;20062;-54
2024/02/15 05:02:43;;;;;;;10.55;5.25;;;8.80;99.90;;;;;;5009712;28;20042;-47
2024/02/15 05:05:12;;;;;;;9.50;5.30;;;8.80;99.90;;;;;;5006793;28;20144;-48
2024/02/15 05:07:39;;;;;;;9.68;6.50;;;8.80;99.90;;;;;;5011245;28;20550;-50
2024/02/15 05:10:08;;;;;;;15.68;8.65;;;8.80;99.90;;;;;;5008515;28;20286;-50
2024/02/15 05:12:37;;;;;;;13.18;8.02;;;8.70;99.90;;;;;;5007354;28;20096;-50
2024/02/15 05:15:10;;;;;;;13.57;7.75;;;8.70;99.90;;;;;;5003798;28;20483;-51
2024/02/15 05:17:40;;;;;;;12.30;7.53;;;8.70;99.90;;;;;;5000326;28;20050;-49
2024/02/15 05:20:13;;;;;;;11.88;7.25;;;8.80;99.90;;;;;;5001671;28;20056;-52
2024/02/15 05:22:45;;;;;;;13.68;7.35;;;8.70;99.90;;;;;;5007463;28;20121;-48
2024/02/15 05:25:22;;;;;;;11.25;6.57;;;8.70;99.90;;;;;;5008136;28;20151;-50
2024/02/15 05:27:50;;;;;;;10.25;6.65;;;8.70;99.90;;;;;;5007636;28;20530;-48
2024/02/15 05:30:17;;;;;;;9.75;6.03;;;8.80;99.90;;;;;;5005731;28;20049;-49
2024/02/15 05:32:45;;;;;;;10.00;6.28;;;8.80;99.90;;;;;;5007535;28;20076;-49
2024/02/15 05:35:12;;;;;;;10.77;5.68;;;8.80;99.90;;;;;;5006475;28;20046;-46
2024/02/15 05:37:39;;;;;;;9.68;6.72;;;8.90;99.90;;;;;;5011125;28;20120;-43
2024/02/15 05:40:07;;;;;;;10.18;6.43;;;8.90;99.90;;;;;;5009956;28;20041;-47
2024/02/15 05:42:34;;;;;;;10.20;6.50;;;9.00;99.90;;;;;;5009314;28;20506;-50
2024/02/15 05:45:29;;;;;;;11.55;7.15;;;9.00;99.90;;;;;;5009998;28;20050;-51
2024/02/15 05:47:56;;;;;;;10.38;5.85;;;9.10;99.90;;;;;;5014270;28;20445;-52
2024/02/15 05:50:23;;;;;;;12.88;6.90;;;9.10;99.90;;;;;;5003400;28;20068;-51
2024/02/15 05:52:52;;;;;;;9.77;5.63;;;9.10;99.90;;;;;;5004889;28;20046;-49
2024/02/15 05:55:18;;;;;;;12.60;6.28;;;9.20;99.90;;;;;;5005968;28;20583;-47
2024/02/15 05:57:46;;;;;;;10.13;5.03;;;9.20;99.90;;;;;;5004687;28;20476;-47
2024/02/15 06:00:15;;;;;;;8.93;5.65;;;9.20;99.90;;;;;;5006098;28;20526;-47
2024/02/15 06:02:49;;;;;;;10.75;6.28;;;9.20;99.90;;;;;;5008877;28;20042;-46
2024/02/15 06:05:17;;;;;;;11.20;6.80;;;9.20;99.90;;;;;;5008600;28;20061;-49
2024/02/15 06:07:46;;;;;;;12.27;7.18;;;9.20;99.90;;;;;;5007175;28;20060;-54
2024/02/15 06:10:14;;;;;;;10.13;6.20;;;9.30;99.90;;;;;;5006812;28;20038;-51
2024/02/15 06:12:41;;;;;;;10.55;5.90;;;9.30;99.90;;;;;;5005305;28;20073;-48
2024/02/15 06:15:14;;;;;;;9.25;5.90;;;9.30;99.90;;;;;;5007999;28;20146;-46
2024/02/15 06:17:45;;;;;;;10.88;5.82;;;9.30;99.90;;;;;;5009418;28;20057;-48
2024/02/15 06:20:14;;;;;;;10.07;6.05;;;9.30;99.90;;;;;;5011668;28;20745;-51
2024/02/15 06:22:41;;;;;;;9.10;5.53;;;9.30;99.90;;;;;;5010461;28;20034;-49
2024/02/15 06:25:09;;;;;;;8.77;5.28;;;9.30;99.90;;;;;;5007761;28;20042;-48
2024/02/15 06:27:40;;;;;;;11.35;5.75;;;9.40;99.90;;;;;;5008236;28;20101;-50
2024/02/15 06:41:12;;;;;;;8.30;4.80;;;9.40;99.90;;;;;;5012625;28;20056;-51
2024/02/15 06:43:43;;;;;;;9.45;4.80;;;9.40;99.90;;;;;;5009372;28;20333;-49
2024/02/15 06:46:10;;;;;;;9.32;5.63;;;9.40;99.90;;;;;;5009671;28;20042;-53
2024/02/15 06:48:37;;;;;;;7.72;5.13;;;9.40;99.90;;;;;;5005980;28;20038;-51
2024/02/15 06:51:05;;;;;;;9.35;5.00;;;9.40;99.90;;;;;;5005708;28;20041;-45
2024/02/15 06:53:32;;;;;;;9.55;5.07;;;9.50;99.90;;;;;;5006097;28;20139;-47
2024/02/15 06:55:59;;;;;;;11.63;5.60;;;9.50;99.90;;;;;;5009923;28;20458;-50
2024/02/15 06:58:27;;;;;;;11.63;5.45;;;9.50;99.90;;;;;;5000683;28;20227;-46
2024/02/15 07:00:54;;;;;;;8.20;5.22;;;9.60;99.90;;;;;;5010614;28;20242;-50
2024/02/15 07:03:23;;;;;;;9.48;6.07;;;9.60;99.90;;;;;;5002221;28;20545;-45
2024/02/15 07:05:50;;;;;;;9.23;6.43;;;9.60;99.90;;;;;;5013033;28;20065;-48
2024/02/15 07:08:17;;;;;;;15.07;8.20;;;9.60;99.90;;;;;;5004240;28;20048;-48
2024/02/15 07:10:44;;;;;;;11.90;7.38;;;9.60;99.90;;;;;;5010810;28;20722;-52
2024/02/15 07:13:11;;;;;;;9.52;5.65;;;9.70;99.90;;;;;;5008033;28;20050;-48
2024/02/15 07:15:38;;;;;;;8.93;5.47;;;9.70;99.90;;;;;;5002645;28;20605;-52
2024/02/15 07:18:06;;;;;;;13.05;5.57;;;9.70;99.90;;;;;;5008813;28;20042;-51
2024/02/15 07:20:34;;;;;;;9.05;5.63;;;9.70;99.90;;;;;;5002529;28;20056;-44
2024/02/15 07:23:01;;;;;;;9.40;5.95;;;9.80;99.90;;;;;;5011761;28;20038;-53
2024/02/15 07:25:28;;;;;;;12.63;6.28;;;9.80;99.90;;;;;;5013965;28;20073;-52
2024/02/15 07:27:56;;;;;;;11.00;6.22;;;9.80;99.90;;;;;;5012211;28;20050;-51
2024/02/15 07:30:23;;;;;;;12.30;6.72;;;9.90;99.90;;;;;;5006256;28;20411;-47
2024/02/15 07:32:52;;;;;;;9.68;5.80;;;10.00;99.90;;;;;;5006984;28;20511;-47
2024/02/15 07:35:19;;;;;;;11.40;6.13;;;10.10;99.90;;;;;;5011458;28;20049;-52
2024/02/15 07:37:55;;;;;;;11.50;5.55;;;10.10;99.90;;;;;;5012663;28;20034;-42
2024/02/15 07:40:22;;;;;;;7.82;4.93;;;10.20;99.90;;;;;;5016777;28;20061;-47
2024/02/15 07:42:52;;;;;;;10.70;5.03;;;10.30;99.90;;;;;;5014836;28;20499;-50
2024/02/15 07:45:19;;;;;;;9.43;5.40;;;10.30;99.90;;;;;;5009915;28;20530;-45
2024/02/15 07:47:46;;;;;;;13.23;6.05;;;10.30;99.90;;;;;;5014106;28;20414;-49
2024/02/15 07:50:19;;;;;;;8.95;5.05;;;10.30;99.90;;;;;;5010019;28;20052;-51
2024/02/15 07:52:47;;;;;;;8.32;5.15;;;10.40;99.90;;;;;;5010141;28;20428;-48
2024/02/15 07:55:14;;;;;;;8.82;5.00;;;10.40;99.90;;;;;;5009367;28;20346;-48
2024/02/15 07:57:41;;;;;;;9.77;4.88;;;10.50;99.90;;;;;;5007646;28;20515;-51
2024/02/15 08:00:10;;;;;;;11.43;5.53;;;10.50;99.90;;;;;;5004827;28;20056;-46
2024/02/15 08:02:40;;;;;;;10.00;5.47;;;10.60;99.90;;;;;;5006708;28;20046;-49
2024/02/15 08:05:10;;;;;;;9.40;5.90;;;10.70;99.90;;;;;;5007318;28;20042;-45
2024/02/15 08:07:45;;;;;;;15.63;6.93;;;10.70;99.90;;;;;;5009639;28;20038;-50
2024/02/15 08:10:15;;;;;;;8.98;5.25;;;10.80;99.90;;;;;;5013335;28;20105;-48
2024/02/15 08:12:43;;;;;;;8.80;5.03;;;10.80;99.90;;;;;;5011267;28;20046;-49
2024/02/15 08:15:11;;;;;;;9.32;5.03;;;10.90;99.90;;;;;;5009150;28;20232;-50
2024/02/15 08:17:46;;;;;;;8.52;4.43;;;10.90;99.90;;;;;;5014095;28;20049;-48
2024/02/15 08:20:14;;;;;;;9.20;5.18;;;11.00;99.90;;;;;;5007372;28;20096;-46
2024/02/15 08:22:43;;;;;;;13.57;4.75;;;11.10;99.90;;;;;;5010653;28;20479;-53
2024/02/15 08:25:11;;;;;;;11.20;5.93;;;11.10;99.90;;;;;;5014215;28;20092;-41
2024/02/15 08:27:44;;;;;;;9.52;5.10;;;11.20;99.90;;;;;;5017370;28;20034;-44
2024/02/15 08:30:12;;;;;;;8.52;4.72;;;11.30;99.90;;;;;;5012268;28;20910;-49
2024/02/15 08:32:45;;;;;;;10.80;5.47;;;11.30;99.90;;;;;;5011060;28;20048;-47
2024/02/15 08:35:13;;;;;;;10.27;5.18;;;11.30;99.90;;;;;;5016087;28;20049;-43
2024/02/15 08:37:42;;;;;;;11.38;6.05;;;11.30;99.90;;;;;;5015568;28;20076;-47
2024/02/15 08:40:14;;;;;;;10.05;5.13;;;11.30;99.90;;;;;;5010755;28;20136;-46
2024/02/15 08:42:42;;;;;;;8.32;4.43;;;11.30;99.90;;;;;;5013675;28;20046;-46
2024/02/15 08:45:12;;;;;;;8.20;4.60;;;11.40;99.90;;;;;;5012893;28;20056;-46
2024/02/15 08:47:40;;;;;;;7.93;4.65;;;11.40;99.90;;;;;;5010265;28;20078;-46
2024/02/15 08:50:12;;;;;;;10.45;5.40;;;11.50;99.90;;;;;;5010478;28;20042;-44
2024/02/15 08:52:39;;;;;;;12.65;5.55;;;11.50;99.90;;;;;;5013365;28;20080;-43
2024/02/15 08:55:14;;;;;;;7.65;4.65;;;11.50;99.90;;;;;;5009916;28;20045;-47
2024/02/15 08:57:41;;;;;;;7.88;4.50;;;11.60;99.90;;;;;;5010626;28;20063;-45
2024/02/15 09:00:13;;;;;;;7.95;4.03;;;11.60;99.90;;;;;;5008654;28;20037;-43
2024/02/15 09:02:45;;;;;;;7.88;4.15;;;11.70;99.90;;;;;;5007512;28;20107;-46
2024/02/15 09:05:14;;;;;;;7.32;4.47;;;11.70;99.90;;;;;;5013241;28;20049;-44
2024/02/15 09:07:43;;;;;;;8.40;4.55;;;11.80;99.90;;;;;;5012487;28;20065;-45
2024/02/15 09:10:11;;;;;;;8.43;4.15;;;11.90;99.90;;;;;;5013715;28;20045;-43
2024/02/15 09:12:40;;;;;;;7.47;3.80;;;12.00;99.90;;;;;;5011416;28;20088;-45
2024/02/15 09:15:08;;;;;;;8.43;4.15;;;12.20;99.90;;;;;;5010982;28;20061;-41
2024/02/15 09:17:38;;;;;;;8.07;3.70;;;12.30;99.90;;;;;;5012237;28;20442;-42
2024/02/15 09:20:20;;;;;;;7.18;4.18;;;12.30;99.90;;;;;;5010469;28;20046;-47
2024/02/15 09:22:51;;;;;;;9.75;3.90;;;12.40;99.90;;;;;;5010105;28;20046;-46
2024/02/15 09:25:18;;;;;;;8.83;4.00;;;12.60;99.90;;;;;;5013141;28;20041;-45
2024/02/15 09:27:46;;;;;;;9.18;5.68;;;12.90;99.90;;;;;;5013154;28;20073;-49
2024/02/15 09:30:13;;;;;;;14.00;8.20;;;13.10;99.90;;;;;;5011183;28;20081;-45
2024/02/15 09:32:41;;;;;;;7.20;4.38;;;13.20;99.90;;;;;;5011763;28;20118;-46
2024/02/15 09:35:13;;;;;;;6.45;3.70;;;13.40;99.90;;;;;;5011311;28;20038;-48
2024/02/15 09:37:45;;;;;;;8.15;3.70;;;13.40;99.90;;;;;;5013454;28;20081;-45
2024/02/15 09:40:15;;;;;;;7.25;4.03;;;13.50;99.90;;;;;;5012167;28;20096;-45
2024/02/15 09:42:46;;;;;;;6.45;4.03;;;13.60;99.90;;;;;;5009531;28;20545;-47
2024/02/15 09:45:14;;;;;;;6.73;4.00;;;13.60;99.90;;;;;;5010501;28;20096;-46
2024/02/15 09:47:43;;;;;;;6.82;3.75;;;13.70;99.90;;;;;;5012365;28;20315;-46
2024/02/15 09:50:13;;;;;;;10.27;4.20;;;13.80;99.90;;;;;;5004235;28;20052;-45
2024/02/15 09:52:45;;;;;;;10.30;5.75;;;13.90;99.90;;;;;;5009484;28;20050;-48
2024/02/15 09:55:13;;;;;;;8.73;4.40;;;13.90;99.90;;;;;;5009334;28;20786;-44
2024/02/15 09:57:46;;;;;;;8.23;4.60;;;13.80;99.90;;;;;;5014857;28;20050;-44
2024/02/15 10:00:13;;;;;;;8.50;4.22;;;13.90;99.90;;;;;;5007765;28;20050;-45
2024/02/15 10:02:44;;;;;;;7.65;4.45;;;14.00;99.90;;;;;;5007258;28;20473;-45
2024/02/15 10:05:12;;;;;;;7.40;3.67;;;14.10;99.90;;;;;;5008528;28;20062;-44
2024/02/15 10:07:46;;;;;;;7.25;4.00;;;14.10;99.90;;;;;;5008861;28;20043;-44
2024/02/15 10:10:33;;;;;;;10.95;4.72;;;14.20;99.90;;;;;;5011287;28;20049;-51
2024/02/15 10:13:01;;;;;;;7.55;4.30;;;14.30;99.90;;;;;;5011299;28;20030;-45
2024/02/15 10:15:36;;;;;;;10.75;4.10;;;14.50;99.90;;;;;;5008784;28;20073;-46
2024/02/15 10:18:10;;;;;;;9.07;4.03;;;14.60;99.90;;;;;;5008339;28;20472;-45
2024/02/15 10:20:38;;;;;;;8.18;3.78;;;14.80;99.90;;;;;;5006774;28;20433;-42
2024/02/15 10:23:14;;;;;;;7.63;4.50;;;15.00;99.90;;;;;;5012525;28;20054;-46
2024/02/15 10:25:41;;;;;;;6.45;4.03;;;15.00;99.90;;;;;;5006296;28;20121;-43
2024/02/15 10:28:09;;;;;;;7.72;4.35;;;15.10;99.90;;;;;;5011353;28;20046;-45
2024/02/15 10:30:44;;;;;;;9.55;3.75;;;15.20;99.90;;;;;;5006652;28;20092;-47
2024/02/15 10:33:23;;;;;;;7.63;3.83;;;15.40;99.90;;;;;;5005437;28;20050;-45
2024/02/15 10:36:08;;;;;;;9.82;4.45;;;15.60;99.90;;;;;;5007336;28;20050;-41
2024/02/15 10:38:38;;;;;;;7.55;3.88;;;15.80;99.90;;;;;;5003112;28;20034;-41
2024/02/15 10:41:07;;;;;;;9.70;3.85;;;15.90;99.90;;;;;;5008883;28;20045;-45
2024/02/15 10:43:37;;;;;;;10.77;4.20;;;16.00;99.90;;;;;;5010604;28;20041;-46
2024/02/15 10:46:04;;;;;;;10.48;4.38;;;15.90;99.90;;;;;;5008858;28;20042;-46
2024/02/15 10:48:31;;;;;;;8.23;3.92;;;15.90;99.90;;;;;;5006400;28;20046;-47
2024/02/15 10:51:01;;;;;;;7.68;4.15;;;16.00;99.90;;;;;;5007352;28;20574;-41
2024/02/15 10:53:31;;;;;;;7.25;4.07;;;16.30;99.90;;;;;;5008326;28;20165;-46
2024/02/15 10:56:23;;;;;;;6.25;3.72;;;16.30;99.90;;;;;;5008348;28;20401;-43
2024/02/15 10:58:50;;;;;;;;;;;16.30;99.90;;;;;;5006253;28;20042;-47
2024/02/15 11:01:18;;;;;;;6.93;3.70;;;16.50;99.90;;;;;;5007969;28;19921;-43
2024/02/15 11:03:59;;;;;;;9.82;3.78;;;16.50;99.90;;;;;;5011007;28;20088;-47
2024/02/15 11:06:29;;;;;;;9.00;4.20;;;16.60;99.90;;;;;;5007690;28;20119;-45
2024/02/15 11:08:57;;;;;;;7.20;3.92;;;16.60;99.90;;;;;;5006348;28;20038;-44
2024/02/15 11:11:25;;;;;;;6.82;3.13;;;16.80;99.90;;;;;;5006296;28;20053;-46
2024/02/15 11:14:26;;;;;;;8.70;4.85;;;17.20;99.90;;;;;;5011627;28;20096;-44
2024/02/15 11:16:53;;;;;;;7.17;3.77;;;17.50;99.90;;;;;;5010369;28;20253;-50
2024/02/15 11:19:35;;;;;;;9.40;4.15;;;17.80;99.90;;;;;;5010848;28;20053;-45
2024/02/15 11:22:14;;;;;;;7.95;3.70;;;18.30;99.90;;;;;;5011836;28;20038;-44
2024/02/15 11:24:52;;;;;;;7.57;3.83;;;18.60;99.90;;;;;;5014710;28;20045;-45
2024/02/15 11:27:30;;;;;;;6.55;3.78;;;18.90;99.90;;;;;;5007833;28;20050;-46
2024/02/15 11:30:09;;;;;;;7.60;4.30;;;18.90;99.90;;;;;;5010378;28;20049;-42
2024/02/15 11:32:50;;;;;;;6.32;4.25;;;19.20;99.90;;;;;;5021788;28;20057;-45
2024/02/15 11:35:23;;;;;;;8.00;4.00;;;19.40;99.90;;;;;;5008655;28;20042;-48
2024/02/15 11:37:53;;;;;;;6.05;4.07;;;19.40;99.90;;;;;;5012682;28;20153;-44
2024/02/15 11:40:27;;;;;;;6.50;4.10;;;19.10;99.90;;;;;;5005692;28;20118;-44
2024/02/15 11:42:55;;;;;;;7.35;3.85;;;19.30;99.90;;;;;;5011471;28;20042;-47
2024/02/15 11:45:22;;;;;;;6.72;3.75;;;19.40;99.90;;;;;;5014745;28;20042;-47
2024/02/15 11:47:51;;;;;;;6.97;4.00;;;19.70;99.90;;;;;;5013082;28;20076;-47
2024/02/15 11:50:20;;;;;;;8.05;4.28;;;20.00;99.90;;;;;;5013506;28;20060;-45
2024/02/15 11:52:51;;;;;;;8.00;4.07;;;20.20;99.90;;;;;;5014426;28;20477;-48
2024/02/15 11:55:22;;;;;;;7.95;4.05;;;20.40;99.90;;;;;;5012959;28;20062;-46
2024/02/15 11:58:04;;;;;;;4.73;3.57;;;21.00;99.90;;;;;;5009045;28;20050;-45
2024/02/15 12:20:11;;;;;;;7.80;4.40;;;21.30;99.90;;;;;;5004648;28;20042;-46
2024/02/15 12:22:47;;;;;;;8.20;4.15;;;21.40;99.90;;;;;;5012921;28;20486;-42
2024/02/15 12:25:16;;;;;;;6.70;4.13;;;21.10;99.90;;;;;;5012929;28;20069;-48
2024/02/15 12:27:44;;;;;;;5.80;4.38;;;21.30;99.90;;;;;;5009862;28;20072;-44
2024/02/15 12:30:17;;;;;;;6.28;4.53;;;21.30;99.90;;;;;;5011118;28;20046;-44
2024/02/15 12:32:50;;;;;;;5.28;3.90;;;21.50;99.90;;;;;;5012769;28;20070;-45
2024/02/15 12:35:20;;;;;;;6.40;4.10;;;21.80;99.90;;;;;;5008240;28;20042;-44
2024/02/15 12:37:48;;;;;;;6.15;4.63;;;21.80;99.90;;;;;;5012799;28;20049;-46
2024/02/15 12:40:18;;;;;;;5.88;3.97;;;22.10;99.90;;;;;;5008772;28;20054;-44
2024/02/15 12:42:49;;;;;;;6.45;4.00;;;22.90;99.90;;;;;;5014018;28;20086;-45
2024/02/15 12:45:20;;;;;;;7.57;4.63;;;23.50;99.90;;;;;;5011981;28;20129;-45
2024/02/15 12:47:53;;;;;;;4.07;3.63;;;24.20;99.90;;;;;;5015164;28;20113;-47
2024/02/15 12:50:22;;;;;;;4.88;3.83;;;24.70;99.90;;;;;;5009555;28;20064;-46
2024/02/15 12:52:50;;;;;;;4.85;3.72;;;24.50;99.90;;;;;;5012579;28;20414;-46
2024/02/15 12:55:19;;;;;;;5.55;4.15;;;24.20;99.90;;;;;;5010742;28;20041;-45
2024/02/15 12:57:55;;;;;;;6.72;4.20;;;23.10;99.90;;;;;;5010738;28;20046;-46
2024/02/15 13:00:32;;;;;;;5.65;4.30;;;24.00;99.90;;;;;;5012452;28;20058;-45
2024/02/15 13:03:08;;;;;;;5.45;4.78;;;24.70;99.00;;;;;;5010762;28;20052;-49
2024/02/15 13:05:38;;;;;;;5.88;4.55;;;24.90;98.80;;;;;;5010514;28;20595;-44
2024/02/15 13:08:10;;;;;;;5.43;4.72;;;25.80;96.00;;;;;;5009169;28;20064;-46
2024/02/15 13:10:38;;;;;;;6.05;5.13;;;26.20;94.60;;;;;;5013647;28;20057;-45
2024/02/15 13:13:07;;;;;;;5.70;5.10;;;26.20;93.40;;;;;;5011723;28;20049;-43
2024/02/15 13:15:33;;;;;;;6.07;5.50;;;26.60;94.20;;;;;;5015363;28;20536;-44
2024/02/15 13:18:04;;;;;;;6.15;5.55;;;27.10;92.40;;;;;;5007863;28;20107;-47
2024/02/15 13:20:32;;;;;;;8.33;6.37;;;27.30;90.90;;;;;;5006733;28;20041;-46
2024/02/15 13:23:02;;;;;;;7.07;5.85;;;27.10;90.60;;;;;;5007053;28;20042;-47
2024/02/15 13:25:30;;;;;;;7.13;6.05;;;27.10;88.00;;;;;;5008240;28;20053;-47
2024/02/15 13:27:57;;;;;;;6.20;5.57;;;25.90;90.50;;;;;;5008152;28;20042;-43
2024/02/15 13:30:27;;;;;;;7.05;5.63;;;26.40;90.20;;;;;;5008614;28;20050;-45
2024/02/15 13:32:56;;;;;;;8.40;6.43;;;26.70;89.70;;;;;;5009375;28;20137;-43
2024/02/15 13:35:25;;;;;;;6.30;5.80;;;26.60;87.50;;;;;;5004421;28;20081;-47